sensor_id;sensor_type;location;lat;lon;timestamp;pressure;altitude;pressure_sealevel;temperature;humidity
3250;BME280;1637;42.020;23.992;2023-05-19T00:00:33;92934.56;;;10.72;100.00
3250;BME280;1637;42.020;23.992;2023-05-19T00:03:01;92935.94;;;10.87;100.00
3250;BME280;1637;42.020;23.992;2023-05-19T00:05:29;92936.03;;;11.14;100.00
3250;BME280;1637;42.020;23.992;2023-05-19T00:07:58;92953.59;;;11.19;100.00
3250;BME280;1637;42.020;23.992;2023-05-19T00:10:27;92930.66;;;11.14;100.00
3250;BME280;1637;42.020;23.992;2023-05-19T00:12:56;92937.13;;;11.20;100.00
3250;BME280;1637;42.020;23.992;2023-05-19T00:15:24;92929.53;;;11.12;100.00
3250;BME280;1637;42.020;23.992;2023-05-19T00:17:51;92923.66;;;11.24;100.00
3250;BME280;1637;42.020;23.992;2023-05-19T00:20:20;92894.16;;;10.93;100.00
3250;BME280;1637;42.020;23.992;2023-05-19T00:22:47;92924.97;;;11.09;100.00
3250;BME280;1637;42.020;23.992;2023-05-19T00:25:14;92920.03;;;11.07;100.00
3250;BME280;1637;42.020;23.992;2023-05-19T00:27:43;92915.41;;;11.08;100.00
3250;BME280;1637;42.020;23.992;2023-05-19T00:30:10;92910.63;;;10.92;100.00
3250;BME280;1637;42.020;23.992;2023-05-19T00:32:37;92912.56;;;10.88;100.00
3250;BME280;1637;42.020;23.992;2023-05-19T00:35:04;92901.53;;;10.82;100.00
3250;BME280;1637;42.020;23.992;2023-05-19T00:37:31;92908.38;;;10.87;100.00
3250;BME280;1637;42.020;23.992;2023-05-19T00:39:57;92920.78;;;10.70;100.00
3250;BME280;1637;42.020;23.992;2023-05-19T00:42:24;92917.00;;;10.67;100.00
3250;BME280;1637;42.020;23.992;2023-05-19T00:44:53;92917.53;;;10.89;100.00
3250;BME280;1637;42.020;23.992;2023-05-19T00:47:19;92914.50;;;10.87;100.00
3250;BME280;1637;42.020;23.992;2023-05-19T00:49:46;92924.84;;;10.85;100.00
3250;BME280;1637;42.020;23.992;2023-05-19T00:52:13;92921.53;;;11.08;100.00
3250;BME280;1637;42.020;23.992;2023-05-19T00:54:40;92911.97;;;11.07;100.00
3250;BME280;1637;42.020;23.992;2023-05-19T00:57:07;92917.25;;;10.80;100.00
3250;BME280;1637;42.020;23.992;2023-05-19T00:59:34;92911.75;;;10.57;100.00
3250;BME280;1637;42.020;23.992;2023-05-19T01:02:02;92911.00;;;10.56;100.00
3250;BME280;1637;42.020;23.992;2023-05-19T01:04:30;92912.38;;;10.72;100.00
3250;BME280;1637;42.020;23.992;2023-05-19T01:06:59;92913.50;;;10.74;100.00
3250;BME280;1637;42.020;23.992;2023-05-19T01:09:26;92908.50;;;10.76;100.00
3250;BME280;1637;42.020;23.992;2023-05-19T01:11:53;92920.00;;;10.73;100.00
3250;BME280;1637;42.020;23.992;2023-05-19T01:14:20;92913.69;;;10.90;100.00
3250;BME280;1637;42.020;23.992;2023-05-19T01:16:52;92894.69;;;10.78;100.00
3250;BME280;1637;42.020;23.992;2023-05-19T01:19:34;92907.81;;;10.65;100.00
3250;BME280;1637;42.020;23.992;2023-05-19T01:22:16;92906.88;;;10.45;100.00
3250;BME280;1637;42.020;23.992;2023-05-19T01:25:31;92898.84;;;10.45;100.00
3250;BME280;1637;42.020;23.992;2023-05-19T01:28:25;92906.88;;;10.82;100.00
3250;BME280;1637;42.020;23.992;2023-05-19T01:30:59;92911.25;;;10.69;100.00
3250;BME280;1637;42.020;23.992;2023-05-19T01:33:29;92911.63;;;10.67;100.00
3250;BME280;1637;42.020;23.992;2023-05-19T01:35:57;92895.59;;;10.64;100.00
3250;BME280;1637;42.020;23.992;2023-05-19T01:38:26;92895.75;;;10.50;100.00
3250;BME280;1637;42.020;23.992;2023-05-19T01:40:54;92896.81;;;10.59;100.00
3250;BME280;1637;42.020;23.992;2023-05-19T01:43:23;92891.97;;;10.44;100.00
3250;BME280;1637;42.020;23.992;2023-05-19T01:45:51;92903.06;;;10.42;100.00
3250;BME280;1637;42.020;23.992;2023-05-19T01:48:20;92899.56;;;10.49;100.00
3250;BME280;1637;42.020;23.992;2023-05-19T01:50:48;92894.28;;;10.42;100.00
3250;BME280;1637;42.020;23.992;2023-05-19T01:53:15;92898.06;;;10.44;100.00
3250;BME280;1637;42.020;23.992;2023-05-19T01:55:43;92899.31;;;10.36;100.00
3250;BME280;1637;42.020;23.992;2023-05-19T01:58:17;92903.91;;;10.36;100.00
3250;BME280;1637;42.020;23.992;2023-05-19T02:00:51;92902.66;;;10.44;100.00
3250;BME280;1637;42.020;23.992;2023-05-19T02:03:41;92898.50;;;10.80;100.00
3250;BME280;1637;42.020;23.992;2023-05-19T02:06:19;92899.59;;;10.83;100.00
3250;BME280;1637;42.020;23.992;2023-05-19T02:08:54;92898.78;;;10.52;100.00
3250;BME280;1637;42.020;23.992;2023-05-19T02:11:26;92895.16;;;10.69;100.00
3250;BME280;1637;42.020;23.992;2023-05-19T02:14:00;92899.38;;;10.70;100.00
3250;BME280;1637;42.020;23.992;2023-05-19T02:16:28;92898.81;;;10.48;100.00
3250;BME280;1637;42.020;23.992;2023-05-19T02:18:56;92894.47;;;10.20;100.00
3250;BME280;1637;42.020;23.992;2023-05-19T02:21:24;92897.56;;;10.15;100.00
3250;BME280;1637;42.020;23.992;2023-05-19T02:23:50;92904.34;;;10.27;100.00
3250;BME280;1637;42.020;23.992;2023-05-19T02:26:17;92909.53;;;10.48;100.00
3250;BME280;1637;42.020;23.992;2023-05-19T02:28:44;92905.69;;;10.49;100.00
3250;BME280;1637;42.020;23.992;2023-05-19T02:31:11;92914.03;;;10.58;100.00
3250;BME280;1637;42.020;23.992;2023-05-19T02:33:37;92905.56;;;10.60;100.00
3250;BME280;1637;42.020;23.992;2023-05-19T02:36:06;92906.84;;;10.48;100.00
3250;BME280;1637;42.020;23.992;2023-05-19T02:38:33;92909.91;;;10.47;100.00
3250;BME280;1637;42.020;23.992;2023-05-19T02:41:00;92914.25;;;10.33;100.00
3250;BME280;1637;42.020;23.992;2023-05-19T02:43:27;92908.41;;;10.46;100.00
3250;BME280;1637;42.020;23.992;2023-05-19T02:45:54;92917.56;;;10.48;100.00
3250;BME280;1637;42.020;23.992;2023-05-19T02:48:21;92924.84;;;10.44;100.00
3250;BME280;1637;42.020;23.992;2023-05-19T02:50:48;92921.53;;;10.33;100.00
3250;BME280;1637;42.020;23.992;2023-05-19T02:53:16;92925.78;;;10.27;100.00
3250;BME280;1637;42.020;23.992;2023-05-19T02:55:43;92926.47;;;10.35;100.00
3250;BME280;1637;42.020;23.992;2023-05-19T02:58:10;92922.41;;;10.16;100.00
3250;BME280;1637;42.020;23.992;2023-05-19T03:00:37;92932.13;;;10.44;100.00
3250;BME280;1637;42.020;23.992;2023-05-19T03:03:04;92923.31;;;10.47;100.00
3250;BME280;1637;42.020;23.992;2023-05-19T03:05:30;92922.31;;;10.26;100.00
3250;BME280;1637;42.020;23.992;2023-05-19T03:07:57;92924.28;;;10.22;100.00
3250;BME280;1637;42.020;23.992;2023-05-19T03:10:25;92929.19;;;10.31;100.00
3250;BME280;1637;42.020;23.992;2023-05-19T03:12:52;92934.56;;;10.27;100.00
3250;BME280;1637;42.020;23.992;2023-05-19T03:15:19;92935.06;;;10.08;100.00
3250;BME280;1637;42.020;23.992;2023-05-19T03:17:47;92907.06;;;10.23;100.00
3250;BME280;1637;42.020;23.992;2023-05-19T03:20:14;92941.38;;;10.36;100.00
3250;BME280;1637;42.020;23.992;2023-05-19T03:22:41;92940.59;;;10.39;100.00
3250;BME280;1637;42.020;23.992;2023-05-19T03:25:08;92939.16;;;10.27;100.00
3250;BME280;1637;42.020;23.992;2023-05-19T03:27:36;92926.50;;;10.31;100.00
3250;BME280;1637;42.020;23.992;2023-05-19T03:30:04;92946.56;;;10.57;100.00
3250;BME280;1637;42.020;23.992;2023-05-19T03:32:31;92943.75;;;10.71;100.00
3250;BME280;1637;42.020;23.992;2023-05-19T03:34:58;92946.09;;;10.65;100.00
3250;BME280;1637;42.020;23.992;2023-05-19T03:37:25;92937.78;;;10.53;100.00
3250;BME280;1637;42.020;23.992;2023-05-19T03:39:51;92943.84;;;10.60;100.00
3250;BME280;1637;42.020;23.992;2023-05-19T03:42:18;92948.03;;;10.61;100.00
3250;BME280;1637;42.020;23.992;2023-05-19T03:44:46;92948.66;;;10.80;100.00
3250;BME280;1637;42.020;23.992;2023-05-19T03:47:13;92941.97;;;10.57;100.00
3250;BME280;1637;42.020;23.992;2023-05-19T03:49:40;92946.66;;;10.84;100.00
3250;BME280;1637;42.020;23.992;2023-05-19T03:52:07;92948.59;;;10.83;100.00
3250;BME280;1637;42.020;23.992;2023-05-19T03:54:34;92966.88;;;10.51;100.00
3250;BME280;1637;42.020;23.992;2023-05-19T03:57:03;92943.56;;;10.48;100.00
3250;BME280;1637;42.020;23.992;2023-05-19T03:59:30;92948.44;;;10.60;100.00
3250;BME280;1637;42.020;23.992;2023-05-19T04:01:58;92955.78;;;10.93;100.00
3250;BME280;1637;42.020;23.992;2023-05-19T04:04:25;92956.09;;;10.99;100.00
3250;BME280;1637;42.020;23.992;2023-05-19T04:06:52;92956.09;;;10.99;100.00
3250;BME280;1637;42.020;23.992;2023-05-19T04:09:20;92960.34;;;10.96;100.00
3250;BME280;1637;42.020;23.992;2023-05-19T04:11:48;92959.56;;;10.99;100.00
3250;BME280;1637;42.020;23.992;2023-05-19T04:14:15;92931.00;;;10.82;100.00
3250;BME280;1637;42.020;23.992;2023-05-19T04:16:42;92964.25;;;11.22;100.00
3250;BME280;1637;42.020;23.992;2023-05-19T04:19:10;92963.09;;;11.57;100.00
3250;BME280;1637;42.020;23.992;2023-05-19T04:21:37;92972.34;;;12.64;100.00
3250;BME280;1637;42.020;23.992;2023-05-19T04:24:05;92956.44;;;13.59;98.46
3250;BME280;1637;42.020;23.992;2023-05-19T04:26:32;92976.28;;;14.21;92.90
3250;BME280;1637;42.020;23.992;2023-05-19T04:28:59;92976.00;;;14.16;90.49
3250;BME280;1637;42.020;23.992;2023-05-19T04:31:26;92967.81;;;15.33;84.11
3250;BME280;1637;42.020;23.992;2023-05-19T04:33:53;92978.72;;;16.00;78.42
3250;BME280;1637;42.020;23.992;2023-05-19T04:36:21;92983.50;;;16.21;79.01
3250;BME280;1637;42.020;23.992;2023-05-19T04:38:48;92986.53;;;16.99;74.33
3250;BME280;1637;42.020;23.992;2023-05-19T04:41:19;92987.47;;;17.05;73.63
3250;BME280;1637;42.020;23.992;2023-05-19T04:43:46;92987.09;;;16.56;75.70
3250;BME280;1637;42.020;23.992;2023-05-19T04:46:14;92984.59;;;16.36;76.85
3250;BME280;1637;42.020;23.992;2023-05-19T04:48:41;92992.38;;;16.85;74.15
3250;BME280;1637;42.020;23.992;2023-05-19T04:51:08;92985.44;;;16.46;76.06
3250;BME280;1637;42.020;23.992;2023-05-19T04:53:40;92997.47;;;17.30;72.44
3250;BME280;1637;42.020;23.992;2023-05-19T04:56:09;92992.78;;;17.43;72.83
3250;BME280;1637;42.020;23.992;2023-05-19T04:58:39;92994.78;;;17.52;72.33
3250;BME280;1637;42.020;23.992;2023-05-19T05:01:06;92998.09;;;17.34;73.03
3250;BME280;1637;42.020;23.992;2023-05-19T05:03:34;93003.19;;;17.45;71.05
3250;BME280;1637;42.020;23.992;2023-05-19T05:06:01;93011.84;;;18.18;68.90
3250;BME280;1637;42.020;23.992;2023-05-19T05:08:28;93009.78;;;18.31;65.39
3250;BME280;1637;42.020;23.992;2023-05-19T05:10:57;93000.38;;;16.63;69.63
3250;BME280;1637;42.020;23.992;2023-05-19T05:13:25;93000.59;;;17.41;73.10
3250;BME280;1637;42.020;23.992;2023-05-19T05:15:52;92999.84;;;17.63;73.08
3250;BME280;1637;42.020;23.992;2023-05-19T05:18:20;93002.19;;;18.17;70.48
3250;BME280;1637;42.020;23.992;2023-05-19T05:20:48;92994.50;;;18.46;68.65
3250;BME280;1637;42.020;23.992;2023-05-19T05:23:15;93004.88;;;17.86;71.41
3250;BME280;1637;42.020;23.992;2023-05-19T05:25:43;93001.00;;;18.18;69.71
3250;BME280;1637;42.020;23.992;2023-05-19T05:28:11;92992.53;;;18.69;68.06
3250;BME280;1637;42.020;23.992;2023-05-19T05:30:38;92995.78;;;18.02;70.64
3250;BME280;1637;42.020;23.992;2023-05-19T05:33:05;92997.88;;;17.76;72.78
3250;BME280;1637;42.020;23.992;2023-05-19T05:35:32;92994.44;;;18.28;70.78
3250;BME280;1637;42.020;23.992;2023-05-19T05:37:59;92996.84;;;18.35;68.48
3250;BME280;1637;42.020;23.992;2023-05-19T05:40:27;92994.84;;;18.58;68.77
3250;BME280;1637;42.020;23.992;2023-05-19T05:42:54;92997.13;;;18.90;67.47
3250;BME280;1637;42.020;23.992;2023-05-19T05:45:22;93003.53;;;19.42;65.71
3250;BME280;1637;42.020;23.992;2023-05-19T05:47:50;93009.63;;;18.26;69.70
3250;BME280;1637;42.020;23.992;2023-05-19T05:50:17;93015.19;;;18.22;70.33
3250;BME280;1637;42.020;23.992;2023-05-19T05:52:45;93006.53;;;18.67;68.12
3250;BME280;1637;42.020;23.992;2023-05-19T05:55:14;93004.72;;;18.64;68.42
3250;BME280;1637;42.020;23.992;2023-05-19T05:57:41;93014.41;;;19.42;65.27
3250;BME280;1637;42.020;23.992;2023-05-19T06:00:09;93022.28;;;19.58;64.61
3250;BME280;1637;42.020;23.992;2023-05-19T06:02:41;93031.22;;;19.68;64.70
3250;BME280;1637;42.020;23.992;2023-05-19T06:05:09;93029.78;;;20.27;61.57
3250;BME280;1637;42.020;23.992;2023-05-19T06:07:37;93031.88;;;20.50;61.70
3250;BME280;1637;42.020;23.992;2023-05-19T06:10:05;93033.88;;;21.25;59.76
3250;BME280;1637;42.020;23.992;2023-05-19T06:12:33;93030.13;;;21.13;59.54
3250;BME280;1637;42.020;23.992;2023-05-19T06:15:01;93025.56;;;21.19;58.57
3250;BME280;1637;42.020;23.992;2023-05-19T06:17:28;93032.72;;;21.65;58.47
3250;BME280;1637;42.020;23.992;2023-05-19T06:19:56;93026.47;;;21.49;58.08
3250;BME280;1637;42.020;23.992;2023-05-19T06:22:23;93028.59;;;20.79;61.21
3250;BME280;1637;42.020;23.992;2023-05-19T06:24:50;93035.78;;;20.58;60.57
3250;BME280;1637;42.020;23.992;2023-05-19T06:27:17;93027.06;;;21.20;60.99
3250;BME280;1637;42.020;23.992;2023-05-19T06:29:44;93029.66;;;21.86;59.38
3250;BME280;1637;42.020;23.992;2023-05-19T06:32:10;93041.50;;;21.83;58.25
3250;BME280;1637;42.020;23.992;2023-05-19T06:34:37;93038.03;;;20.69;59.31
3250;BME280;1637;42.020;23.992;2023-05-19T06:37:06;93045.84;;;19.88;59.15
3250;BME280;1637;42.020;23.992;2023-05-19T06:39:33;93041.03;;;19.16;60.68
3250;BME280;1637;42.020;23.992;2023-05-19T06:41:59;93034.78;;;17.48;65.34
3250;BME280;1637;42.020;23.992;2023-05-19T06:44:26;93039.34;;;18.91;64.63
3250;BME280;1637;42.020;23.992;2023-05-19T06:46:53;93044.16;;;21.21;58.36
3250;BME280;1637;42.020;23.992;2023-05-19T06:49:20;93043.38;;;21.30;57.94
3250;BME280;1637;42.020;23.992;2023-05-19T06:51:47;93053.28;;;22.72;55.46
3250;BME280;1637;42.020;23.992;2023-05-19T06:54:15;93058.19;;;22.39;54.50
3250;BME280;1637;42.020;23.992;2023-05-19T06:56:41;93054.28;;;21.77;57.87
3250;BME280;1637;42.020;23.992;2023-05-19T06:59:09;93046.13;;;22.45;55.38
3250;BME280;1637;42.020;23.992;2023-05-19T07:01:36;93050.13;;;22.59;56.11
3250;BME280;1637;42.020;23.992;2023-05-19T07:04:03;93053.09;;;23.55;51.97
3250;BME280;1637;42.020;23.992;2023-05-19T07:06:30;93053.47;;;21.62;54.56
3250;BME280;1637;42.020;23.992;2023-05-19T07:08:58;93044.00;;;20.40;59.13
3250;BME280;1637;42.020;23.992;2023-05-19T07:11:26;93053.47;;;21.62;57.28
3250;BME280;1637;42.020;23.992;2023-05-19T07:13:53;93049.78;;;21.89;54.59
3250;BME280;1637;42.020;23.992;2023-05-19T07:16:19;93035.56;;;19.56;61.60
3250;BME280;1637;42.020;23.992;2023-05-19T07:18:46;93031.63;;;18.59;63.15
3250;BME280;1637;42.020;23.992;2023-05-19T07:21:13;93042.19;;;18.97;64.01
3250;BME280;1637;42.020;23.992;2023-05-19T07:23:40;93042.19;;;20.28;60.03
3250;BME280;1637;42.020;23.992;2023-05-19T07:26:07;93046.84;;;18.56;64.66
3250;BME280;1637;42.020;23.992;2023-05-19T07:28:35;93043.13;;;20.16;62.09
3250;BME280;1637;42.020;23.992;2023-05-19T07:31:02;93052.41;;;21.83;55.45
3250;BME280;1637;42.020;23.992;2023-05-19T07:33:29;93055.22;;;21.74;53.90
3250;BME280;1637;42.020;23.992;2023-05-19T07:35:56;93053.81;;;22.03;54.34
3250;BME280;1637;42.020;23.992;2023-05-19T07:38:22;93059.41;;;22.38;53.69
3250;BME280;1637;42.020;23.992;2023-05-19T07:40:49;93057.53;;;22.58;52.45
3250;BME280;1637;42.020;23.992;2023-05-19T07:43:16;93061.16;;;23.29;52.41
3250;BME280;1637;42.020;23.992;2023-05-19T07:45:44;93055.22;;;22.81;51.50
3250;BME280;1637;42.020;23.992;2023-05-19T07:48:11;93056.63;;;22.61;51.46
3250;BME280;1637;42.020;23.992;2023-05-19T07:50:38;93063.09;;;22.93;50.96
3250;BME280;1637;42.020;23.992;2023-05-19T07:53:05;93060.63;;;22.66;50.61
3250;BME280;1637;42.020;23.992;2023-05-19T07:55:32;93045.53;;;19.96;56.86
3250;BME280;1637;42.020;23.992;2023-05-19T07:57:58;93046.41;;;20.20;56.38
3250;BME280;1637;42.020;23.992;2023-05-19T08:00:25;93045.38;;;19.63;57.53
3250;BME280;1637;42.020;23.992;2023-05-19T08:02:54;93053.66;;;20.23;56.86
3250;BME280;1637;42.020;23.992;2023-05-19T08:05:21;93060.63;;;22.22;52.63
3250;BME280;1637;42.020;23.992;2023-05-19T08:07:50;93055.94;;;20.43;56.09
3250;BME280;1637;42.020;23.992;2023-05-19T08:10:17;93062.13;;;20.34;55.18
3250;BME280;1637;42.020;23.992;2023-05-19T08:12:43;93068.13;;;21.65;52.41
3250;BME280;1637;42.020;23.992;2023-05-19T08:15:10;93065.72;;;22.73;51.26
3250;BME280;1637;42.020;23.992;2023-05-19T08:17:37;93058.47;;;21.40;52.54
3250;BME280;1637;42.020;23.992;2023-05-19T08:20:06;93059.63;;;21.48;51.36
3250;BME280;1637;42.020;23.992;2023-05-19T08:22:34;93080.69;;;22.34;50.26
3250;BME280;1637;42.020;23.992;2023-05-19T08:25:01;93070.25;;;21.70;52.02
3250;BME280;1637;42.020;23.992;2023-05-19T08:27:30;93071.16;;;21.43;52.72
3250;BME280;1637;42.020;23.992;2023-05-19T08:29:57;93074.94;;;21.03;53.34
3250;BME280;1637;42.020;23.992;2023-05-19T08:32:24;93063.00;;;20.58;51.03
3250;BME280;1637;42.020;23.992;2023-05-19T08:34:51;93070.59;;;20.45;51.73
3250;BME280;1637;42.020;23.992;2023-05-19T08:37:19;93065.94;;;20.09;52.42
3250;BME280;1637;42.020;23.992;2023-05-19T08:39:46;93062.44;;;20.18;50.73
3250;BME280;1637;42.020;23.992;2023-05-19T08:42:12;93056.41;;;19.96;51.46
3250;BME280;1637;42.020;23.992;2023-05-19T08:44:40;93061.38;;;19.51;53.67
3250;BME280;1637;42.020;23.992;2023-05-19T08:47:08;93057.63;;;19.85;53.45
3250;BME280;1637;42.020;23.992;2023-05-19T08:49:42;92983.59;;;20.09;51.94
3250;BME280;1637;42.020;23.992;2023-05-19T08:52:18;93065.31;;;20.23;51.95
3250;BME280;1637;42.020;23.992;2023-05-19T08:54:52;93066.84;;;19.88;53.20
3250;BME280;1637;42.020;23.992;2023-05-19T08:57:22;93081.41;;;19.45;53.29
3250;BME280;1637;42.020;23.992;2023-05-19T08:59:50;93064.59;;;19.10;54.94
3250;BME280;1637;42.020;23.992;2023-05-19T09:02:18;93073.63;;;19.07;55.13
3250;BME280;1637;42.020;23.992;2023-05-19T09:04:46;93071.66;;;19.07;55.18
3250;BME280;1637;42.020;23.992;2023-05-19T09:07:13;93082.78;;;19.00;54.64
3250;BME280;1637;42.020;23.992;2023-05-19T09:09:40;93077.72;;;19.88;52.45
3250;BME280;1637;42.020;23.992;2023-05-19T09:12:10;93078.75;;;20.00;52.89
3250;BME280;1637;42.020;23.992;2023-05-19T09:14:37;93061.69;;;19.99;53.00
3250;BME280;1637;42.020;23.992;2023-05-19T09:17:04;93076.34;;;20.29;52.43
3250;BME280;1637;42.020;23.992;2023-05-19T09:19:31;93075.34;;;21.20;53.58
3250;BME280;1637;42.020;23.992;2023-05-19T09:21:58;93083.97;;;21.51;50.77
3250;BME280;1637;42.020;23.992;2023-05-19T09:24:27;93064.47;;;20.78;50.45
3250;BME280;1637;42.020;23.992;2023-05-19T09:26:55;93067.56;;;20.34;51.93
3250;BME280;1637;42.020;23.992;2023-05-19T09:29:24;93067.00;;;19.84;53.50
3250;BME280;1637;42.020;23.992;2023-05-19T09:31:51;93067.44;;;20.29;52.80
3250;BME280;1637;42.020;23.992;2023-05-19T09:34:19;93062.44;;;20.36;52.16
3250;BME280;1637;42.020;23.992;2023-05-19T09:36:47;93054.31;;;20.09;51.89
3250;BME280;1637;42.020;23.992;2023-05-19T09:39:15;93068.50;;;19.67;54.08
3250;BME280;1637;42.020;23.992;2023-05-19T09:41:43;93068.81;;;20.15;52.92
3250;BME280;1637;42.020;23.992;2023-05-19T09:44:20;93068.63;;;20.46;53.61
3250;BME280;1637;42.020;23.992;2023-05-19T09:46:50;93077.47;;;21.16;51.53
3250;BME280;1637;42.020;23.992;2023-05-19T09:49:19;93063.53;;;21.23;51.21
3250;BME280;1637;42.020;23.992;2023-05-19T09:51:49;93070.19;;;21.22;50.24
3250;BME280;1637;42.020;23.992;2023-05-19T09:54:16;93065.72;;;20.58;52.55
3250;BME280;1637;42.020;23.992;2023-05-19T09:56:50;93070.13;;;20.47;52.11
3250;BME280;1637;42.020;23.992;2023-05-19T09:59:18;93054.22;;;20.64;51.23
3250;BME280;1637;42.020;23.992;2023-05-19T10:01:45;93055.84;;;21.12;50.72
3250;BME280;1637;42.020;23.992;2023-05-19T10:04:15;93062.94;;;21.52;52.18
3250;BME280;1637;42.020;23.992;2023-05-19T10:06:43;93060.16;;;21.37;49.11
3250;BME280;1637;42.020;23.992;2023-05-19T10:09:10;93074.88;;;21.54;48.27
3250;BME280;1637;42.020;23.992;2023-05-19T10:11:38;93068.44;;;21.67;46.95
3250;BME280;1637;42.020;23.992;2023-05-19T10:14:06;93065.16;;;20.54;50.96
3250;BME280;1637;42.020;23.992;2023-05-19T10:16:34;93060.78;;;20.30;52.39
3250;BME280;1637;42.020;23.992;2023-05-19T10:19:02;93057.94;;;20.15;53.57
3250;BME280;1637;42.020;23.992;2023-05-19T10:21:31;93055.19;;;20.42;53.49
3250;BME280;1637;42.020;23.992;2023-05-19T10:23:58;93048.47;;;20.62;52.04
3250;BME280;1637;42.020;23.992;2023-05-19T10:26:25;93061.47;;;20.67;52.24
3250;BME280;1637;42.020;23.992;2023-05-19T10:28:53;93054.44;;;20.23;52.65
3250;BME280;1637;42.020;23.992;2023-05-19T10:31:22;93051.44;;;20.03;52.46
3250;BME280;1637;42.020;23.992;2023-05-19T10:34:06;93046.91;;;20.00;54.53
3250;BME280;1637;42.020;23.992;2023-05-19T10:36:45;93050.97;;;19.96;54.91
3250;BME280;1637;42.020;23.992;2023-05-19T10:39:21;93051.84;;;20.47;54.36
3250;BME280;1637;42.020;23.992;2023-05-19T10:42:01;93056.06;;;20.57;54.02
3250;BME280;1637;42.020;23.992;2023-05-19T10:44:41;93053.22;;;20.34;51.54
3250;BME280;1637;42.020;23.992;2023-05-19T10:47:10;93057.03;;;20.09;53.65
3250;BME280;1637;42.020;23.992;2023-05-19T10:49:38;93060.50;;;20.09;55.38
3250;BME280;1637;42.020;23.992;2023-05-19T10:52:19;93064.69;;;20.38;53.81
3250;BME280;1637;42.020;23.992;2023-05-19T10:54:50;93068.28;;;20.62;53.69
3250;BME280;1637;42.020;23.992;2023-05-19T10:57:19;93061.97;;;20.47;53.05
3250;BME280;1637;42.020;23.992;2023-05-19T10:59:50;93070.00;;;20.41;54.13
3250;BME280;1637;42.020;23.992;2023-05-19T11:02:37;93101.44;;;20.51;54.30
3250;BME280;1637;42.020;23.992;2023-05-19T11:05:07;93061.78;;;20.59;53.96
3250;BME280;1637;42.020;23.992;2023-05-19T11:07:36;93055.78;;;20.46;54.05
3250;BME280;1637;42.020;23.992;2023-05-19T11:10:06;93059.66;;;20.64;54.78
3250;BME280;1637;42.020;23.992;2023-05-19T11:12:40;93064.22;;;21.00;53.16
3250;BME280;1637;42.020;23.992;2023-05-19T11:15:10;93062.97;;;20.77;53.24
3250;BME280;1637;42.020;23.992;2023-05-19T11:17:38;93048.06;;;20.36;53.29
3250;BME280;1637;42.020;23.992;2023-05-19T11:20:08;93055.81;;;20.01;53.67
3250;BME280;1637;42.020;23.992;2023-05-19T11:22:38;93063.03;;;20.31;53.74
3250;BME280;1637;42.020;23.992;2023-05-19T11:25:06;93055.19;;;20.24;53.50
3250;BME280;1637;42.020;23.992;2023-05-19T11:27:34;93052.75;;;20.44;52.45
3250;BME280;1637;42.020;23.992;2023-05-19T11:30:09;93053.66;;;20.41;51.82
3250;BME280;1637;42.020;23.992;2023-05-19T11:32:39;93053.22;;;20.34;54.24
3250;BME280;1637;42.020;23.992;2023-05-19T11:35:07;93057.63;;;20.13;52.87
3250;BME280;1637;42.020;23.992;2023-05-19T11:37:35;93049.16;;;19.83;53.83
3250;BME280;1637;42.020;23.992;2023-05-19T11:40:07;93058.53;;;19.64;54.88
3250;BME280;1637;42.020;23.992;2023-05-19T11:42:34;93061.53;;;19.66;55.88
3250;BME280;1637;42.020;23.992;2023-05-19T11:45:02;93062.50;;;19.23;57.06
3250;BME280;1637;42.020;23.992;2023-05-19T11:47:30;93067.97;;;19.41;58.06
3250;BME280;1637;42.020;23.992;2023-05-19T11:49:58;93074.88;;;18.84;62.03
3250;BME280;1637;42.020;23.992;2023-05-19T11:52:25;93074.59;;;18.07;66.19
3250;BME280;1637;42.020;23.992;2023-05-19T11:54:52;93069.19;;;17.95;65.67
3250;BME280;1637;42.020;23.992;2023-05-19T11:57:22;93075.47;;;18.26;65.08
3250;BME280;1637;42.020;23.992;2023-05-19T11:59:49;93036.31;;;17.83;62.29
3250;BME280;1637;42.020;23.992;2023-05-19T12:02:18;93061.69;;;18.42;63.00
3250;BME280;1637;42.020;23.992;2023-05-19T12:04:46;93054.56;;;18.88;61.98
3250;BME280;1637;42.020;23.992;2023-05-19T12:07:14;93054.00;;;19.52;58.30
3250;BME280;1637;42.020;23.992;2023-05-19T12:09:43;93064.56;;;20.23;54.97
3250;BME280;1637;42.020;23.992;2023-05-19T12:12:12;93055.94;;;20.43;56.46
3250;BME280;1637;42.020;23.992;2023-05-19T12:14:42;92964.16;;;19.92;55.56
3250;BME280;1637;42.020;23.992;2023-05-19T12:17:09;93037.22;;;20.08;55.36
3250;BME280;1637;42.020;23.992;2023-05-19T12:19:37;93038.28;;;20.11;53.81
3250;BME280;1637;42.020;23.992;2023-05-19T12:22:05;93040.72;;;19.81;54.56
3250;BME280;1637;42.020;23.992;2023-05-19T12:24:33;93041.81;;;20.63;53.08
3250;BME280;1637;42.020;23.992;2023-05-19T12:27:09;93030.72;;;21.17;51.27
3250;BME280;1637;42.020;23.992;2023-05-19T12:29:37;93040.06;;;20.50;49.68
3250;BME280;1637;42.020;23.992;2023-05-19T12:32:06;93037.94;;;20.97;50.88
3250;BME280;1637;42.020;23.992;2023-05-19T12:34:35;93042.03;;;20.92;48.43
3250;BME280;1637;42.020;23.992;2023-05-19T12:37:02;93037.25;;;20.78;49.85
3250;BME280;1637;42.020;23.992;2023-05-19T12:39:29;93033.16;;;20.13;50.82
3250;BME280;1637;42.020;23.992;2023-05-19T12:42:00;93026.31;;;20.45;52.21
3250;BME280;1637;42.020;23.992;2023-05-19T12:44:28;93030.88;;;20.81;51.48
3250;BME280;1637;42.020;23.992;2023-05-19T12:46:56;93026.06;;;21.09;51.87
3250;BME280;1637;42.020;23.992;2023-05-19T12:49:25;93027.16;;;20.60;51.77
3250;BME280;1637;42.020;23.992;2023-05-19T12:51:52;93014.16;;;19.95;53.44
3250;BME280;1637;42.020;23.992;2023-05-19T12:54:19;93015.34;;;19.75;53.64
3250;BME280;1637;42.020;23.992;2023-05-19T12:56:49;93016.41;;;19.87;54.04
3250;BME280;1637;42.020;23.992;2023-05-19T12:59:21;93020.56;;;20.52;52.77
3250;BME280;1637;42.020;23.992;2023-05-19T13:01:54;93018.16;;;20.27;54.21
3250;BME280;1637;42.020;23.992;2023-05-19T13:04:21;93014.34;;;21.26;51.63
3250;BME280;1637;42.020;23.992;2023-05-19T13:06:50;93019.00;;;21.59;51.07
3250;BME280;1637;42.020;23.992;2023-05-19T13:09:17;93018.19;;;21.82;47.18
3250;BME280;1637;42.020;23.992;2023-05-19T13:11:45;93021.75;;;21.74;47.87
3250;BME280;1637;42.020;23.992;2023-05-19T13:14:15;93015.56;;;21.49;48.64